createdAt,value
2023-05-13T00:00:42.994Z,13.85
2023-05-13T00:01:43.013Z,13.73
2023-05-13T00:02:43.128Z,13.75
2023-05-13T00:03:43.240Z,13.85
2023-05-13T00:04:43.019Z,13.86
2023-05-13T00:05:43.070Z,13.74
2023-05-13T00:06:43.044Z,13.86
2023-05-13T00:07:43.062Z,13.85
2023-05-13T00:08:43.099Z,13.86
2023-05-13T00:09:43.097Z,13.91
2023-05-13T00:10:43.110Z,13.89
2023-05-13T00:11:43.168Z,13.89
2023-05-13T00:12:43.189Z,13.91
2023-05-13T00:13:43.203Z,13.94
2023-05-13T00:14:43.259Z,13.81
2023-05-13T00:15:43.274Z,13.89
2023-05-13T00:16:43.409Z,13.84
2023-05-13T00:17:43.435Z,13.77
2023-05-13T00:18:43.439Z,13.78
2023-05-13T00:19:43.440Z,13.75
2023-05-13T00:20:43.469Z,13.71
2023-05-13T00:21:43.501Z,13.66
2023-05-13T00:22:43.558Z,13.66
2023-05-13T00:23:43.568Z,13.70
2023-05-13T00:24:43.593Z,13.77
2023-05-13T00:25:43.630Z,13.74
2023-05-13T00:26:43.630Z,13.74
2023-05-13T00:27:43.684Z,13.81
2023-05-13T00:28:43.666Z,13.75
2023-05-13T00:29:43.714Z,13.84
2023-05-13T00:30:43.752Z,13.85
2023-05-13T00:31:43.789Z,13.82
2023-05-13T00:32:43.822Z,13.85
2023-05-13T00:33:43.835Z,13.88
2023-05-13T00:34:43.855Z,13.86
2023-05-13T00:35:43.890Z,13.89
2023-05-13T00:36:43.940Z,13.89
2023-05-13T00:37:43.995Z,13.94
2023-05-13T00:38:44.021Z,13.92
2023-05-13T00:39:44.037Z,13.89
2023-05-13T00:40:44.074Z,13.94
2023-05-13T00:41:44.112Z,13.98
2023-05-13T00:42:44.131Z,13.97
2023-05-13T00:43:44.185Z,14.01
2023-05-13T00:44:44.213Z,14.08
2023-05-13T00:45:44.299Z,14.09
2023-05-13T00:46:44.368Z,14.09
2023-05-13T00:47:44.456Z,14.12
2023-05-13T00:48:44.486Z,14.13
2023-05-13T00:49:44.559Z,14.18
2023-05-13T00:50:44.643Z,14.11
2023-05-13T00:51:44.675Z,14.12
2023-05-13T00:52:44.710Z,14.13
2023-05-13T00:53:44.757Z,14.09
2023-05-13T00:54:44.792Z,14.04
2023-05-13T00:55:44.842Z,14.01
2023-05-13T00:56:44.850Z,14.08
2023-05-13T00:57:44.919Z,14.07
2023-05-13T00:58:44.946Z,14.05
2023-05-13T00:59:44.996Z,14.09
2023-05-13T01:00:45.139Z,14.13
2023-05-13T01:01:45.363Z,14.11
2023-05-13T01:02:45.234Z,14.15
2023-05-13T01:03:45.185Z,14.16
2023-05-13T01:04:45.208Z,14.25
2023-05-13T01:05:45.208Z,14.29
2023-05-13T01:06:45.225Z,14.30
2023-05-13T01:07:45.229Z,14.36
2023-05-13T01:08:45.240Z,14.37
2023-05-13T01:09:45.235Z,14.44
2023-05-13T01:10:45.233Z,14.50
2023-05-13T01:11:45.247Z,14.51
2023-05-13T01:12:45.257Z,14.55
2023-05-13T01:13:45.256Z,14.60
2023-05-13T01:14:45.265Z,14.62
2023-05-13T01:15:45.320Z,14.66
2023-05-13T01:16:45.370Z,14.68
2023-05-13T01:17:45.393Z,14.71
2023-05-13T01:18:45.419Z,14.75
2023-05-13T01:19:45.390Z,14.75
2023-05-13T01:20:45.413Z,14.78
2023-05-13T01:21:45.412Z,14.83
2023-05-13T01:22:45.469Z,14.85
2023-05-13T01:23:45.500Z,14.87
2023-05-13T01:24:45.528Z,14.87
2023-05-13T01:25:45.511Z,14.88
2023-05-13T01:26:45.517Z,14.90
2023-05-13T01:27:45.538Z,14.88
2023-05-13T01:28:45.532Z,14.87
2023-05-13T01:29:45.547Z,14.90
2023-05-13T01:30:45.561Z,14.90
2023-05-13T01:31:45.640Z,14.88
2023-05-13T01:32:45.633Z,14.90
2023-05-13T01:33:45.602Z,14.90
2023-05-13T01:34:45.610Z,14.91
2023-05-13T01:35:45.631Z,14.92
2023-05-13T01:36:45.629Z,14.95
2023-05-13T01:37:45.691Z,14.95
2023-05-13T01:38:45.737Z,14.98
2023-05-13T01:39:45.793Z,14.99
2023-05-13T01:40:45.840Z,15.01
2023-05-13T01:41:45.882Z,15.01
2023-05-13T01:42:45.925Z,15.01
2023-05-13T01:43:45.955Z,15.02
2023-05-13T01:44:46.680Z,15.06
2023-05-13T01:45:46.030Z,15.02
2023-05-13T01:46:46.085Z,15.03
2023-05-13T01:47:46.132Z,15.01
2023-05-13T01:48:46.080Z,15.02
2023-05-13T01:49:46.129Z,15.03
2023-05-13T01:50:46.172Z,15.02
2023-05-13T01:51:46.184Z,15.03
2023-05-13T01:52:46.211Z,15.05
2023-05-13T01:53:46.258Z,15.05
2023-05-13T01:54:46.327Z,15.02
2023-05-13T01:55:46.389Z,15.03
2023-05-13T01:56:47.520Z,15.05
2023-05-13T01:57:46.460Z,15.03
2023-05-13T01:58:46.465Z,15.01
2023-05-13T01:59:46.458Z,14.92
2023-05-13T02:00:46.463Z,14.95
2023-05-13T02:01:46.497Z,14.94
2023-05-13T02:02:46.593Z,14.94
2023-05-13T02:03:46.567Z,14.94
2023-05-13T02:04:46.513Z,14.95
2023-05-13T02:05:46.532Z,14.95
2023-05-13T02:06:46.539Z,14.94
2023-05-13T02:07:46.558Z,14.91
2023-05-13T02:08:46.566Z,14.87
2023-05-13T02:09:46.606Z,14.85
2023-05-13T02:10:46.643Z,14.81
2023-05-13T02:11:46.708Z,14.77
2023-05-13T02:12:46.776Z,14.70
2023-05-13T02:13:46.828Z,14.66
2023-05-13T02:14:46.875Z,14.60
2023-05-13T02:15:46.925Z,14.59
2023-05-13T02:16:47.004Z,14.56
2023-05-13T02:17:47.110Z,14.55
2023-05-13T02:18:47.107Z,14.55
2023-05-13T02:19:47.217Z,14.51
2023-05-13T02:20:47.239Z,14.51
2023-05-13T02:21:47.285Z,14.55
2023-05-13T02:22:47.324Z,14.55
2023-05-13T02:23:47.374Z,14.53
2023-05-13T02:24:47.417Z,14.56
2023-05-13T02:25:47.439Z,14.55
2023-05-13T02:26:47.469Z,14.57
2023-05-13T02:27:47.497Z,14.57
2023-05-13T02:28:47.538Z,14.56
2023-05-13T02:29:47.530Z,14.59
2023-05-13T02:30:47.543Z,14.60
2023-05-13T02:31:47.598Z,14.62
2023-05-13T02:32:47.671Z,14.60
2023-05-13T02:33:47.590Z,14.64
2023-05-13T02:34:47.587Z,14.64
2023-05-13T02:35:47.629Z,14.67
2023-05-13T02:36:47.651Z,14.67
2023-05-13T02:37:47.648Z,14.66
2023-05-13T02:38:47.673Z,14.64
2023-05-13T02:39:47.692Z,14.64
2023-05-13T02:40:47.715Z,14.62
2023-05-13T02:41:47.774Z,14.62
2023-05-13T02:42:47.809Z,14.62
2023-05-13T02:43:47.855Z,14.60
2023-05-13T02:44:47.947Z,14.50
2023-05-13T02:45:48.033Z,14.41
2023-05-13T02:46:48.027Z,14.29
2023-05-13T02:47:48.068Z,14.33
2023-05-13T02:48:48.136Z,14.35
2023-05-13T02:49:48.215Z,14.32
2023-05-13T02:50:48.299Z,14.30
2023-05-13T02:51:48.394Z,14.08
2023-05-13T02:52:48.467Z,14.18
2023-05-13T02:53:48.709Z,14.15
2023-05-13T02:54:48.568Z,14.07
2023-05-13T02:55:48.597Z,14.11
2023-05-13T02:56:48.620Z,14.05
2023-05-13T02:57:48.679Z,14.07
2023-05-13T02:58:48.773Z,14.04
2023-05-13T02:59:48.840Z,14.05
2023-05-13T03:00:48.771Z,13.92
2023-05-13T03:01:48.863Z,13.95
2023-05-13T03:02:48.924Z,13.91
2023-05-13T03:03:48.931Z,13.95
2023-05-13T03:04:48.942Z,13.85
2023-05-13T03:05:49.009Z,13.84
2023-05-13T03:06:49.081Z,13.85
2023-05-13T03:07:49.210Z,13.78
2023-05-13T03:08:49.274Z,13.80
2023-05-13T03:09:49.345Z,13.81
2023-05-13T03:10:49.420Z,13.70
2023-05-13T03:11:49.513Z,13.73
2023-05-13T03:12:49.577Z,13.74
2023-05-13T03:13:49.663Z,13.73
2023-05-13T03:14:49.768Z,13.73
2023-05-13T03:15:49.895Z,13.60
2023-05-13T03:16:49.969Z,13.68
2023-05-13T03:17:50.075Z,13.61
2023-05-13T03:18:50.223Z,13.50
2023-05-13T03:19:50.293Z,13.49
2023-05-13T03:20:50.368Z,13.53
2023-05-13T03:21:50.441Z,13.46
2023-05-13T03:22:50.576Z,13.46
2023-05-13T03:23:50.667Z,13.50
2023-05-13T03:24:50.715Z,13.50
2023-05-13T03:25:50.794Z,13.50
2023-05-13T03:26:50.849Z,13.51
2023-05-13T03:27:50.894Z,13.56
2023-05-13T03:28:50.937Z,13.60
2023-05-13T03:29:50.979Z,13.57
2023-05-13T03:30:51.098Z,13.63
2023-05-13T03:31:51.183Z,13.60
2023-05-13T03:32:51.199Z,13.61
2023-05-13T03:33:51.253Z,13.63
2023-05-13T03:34:51.328Z,13.60
2023-05-13T03:35:51.407Z,13.54
2023-05-13T03:36:51.508Z,13.60
2023-05-13T03:37:51.590Z,13.53
2023-05-13T03:38:51.678Z,13.53
2023-05-13T03:39:51.860Z,13.54
2023-05-13T03:40:51.872Z,13.56
2023-05-13T03:41:51.973Z,13.58
2023-05-13T03:42:52.061Z,13.54
2023-05-13T03:43:52.169Z,13.54
2023-05-13T03:44:52.265Z,13.50
2023-05-13T03:45:52.362Z,13.51
2023-05-13T03:46:52.535Z,13.46
2023-05-13T03:47:52.624Z,13.49
2023-05-13T03:48:52.639Z,13.46
2023-05-13T03:49:52.748Z,13.47
2023-05-13T03:50:52.837Z,13.45
2023-05-13T03:51:52.915Z,13.56
2023-05-13T03:52:52.995Z,13.45
2023-05-13T03:53:53.062Z,13.54
2023-05-13T03:54:53.103Z,13.58
2023-05-13T03:55:53.165Z,13.51
2023-05-13T03:56:53.188Z,13.56
2023-05-13T03:57:53.266Z,13.68
2023-05-13T03:58:53.351Z,13.74
2023-05-13T03:59:53.443Z,13.74
2023-05-13T04:00:53.509Z,13.77
2023-05-13T04:01:53.647Z,13.78
2023-05-13T04:02:53.646Z,13.82
2023-05-13T04:03:53.610Z,13.82
2023-05-13T04:04:53.666Z,13.85
2023-05-13T04:05:53.722Z,13.85
2023-05-13T04:06:53.801Z,13.91
2023-05-13T04:07:53.826Z,13.92
2023-05-13T04:08:53.895Z,13.92
2023-05-13T04:09:53.905Z,13.94
2023-05-13T04:10:53.994Z,13.95
2023-05-13T04:11:54.112Z,13.92
2023-05-13T04:12:54.125Z,13.86
2023-05-13T04:13:54.173Z,13.94
2023-05-13T04:14:54.250Z,13.92
2023-05-13T04:15:54.395Z,13.80
2023-05-13T04:16:54.400Z,13.88
2023-05-13T04:17:54.422Z,13.80
2023-05-13T04:18:54.417Z,13.81
2023-05-13T04:19:54.464Z,13.67
2023-05-13T04:20:54.548Z,13.71
2023-05-13T04:21:54.634Z,13.71
2023-05-13T04:22:54.687Z,13.63
2023-05-13T04:23:54.713Z,13.73
2023-05-13T04:24:54.786Z,13.64
2023-05-13T04:25:54.827Z,13.54
2023-05-13T04:26:54.873Z,13.43
2023-05-13T04:27:54.942Z,13.47
2023-05-13T04:28:54.988Z,13.46
2023-05-13T04:29:55.042Z,13.43
2023-05-13T04:30:55.100Z,13.50
2023-05-13T04:31:55.224Z,13.51
2023-05-13T04:32:55.299Z,13.50
2023-05-13T04:33:55.353Z,13.47
2023-05-13T04:34:55.422Z,13.29
2023-05-13T04:35:55.479Z,13.45
2023-05-13T04:36:55.490Z,13.50
2023-05-13T04:37:55.529Z,13.50
2023-05-13T04:38:55.589Z,13.51
2023-05-13T04:39:55.603Z,13.54
2023-05-13T04:40:55.652Z,13.61
2023-05-13T04:41:55.685Z,13.56
2023-05-13T04:42:55.759Z,13.58
2023-05-13T04:43:55.935Z,13.54
2023-05-13T04:44:55.945Z,13.58
2023-05-13T04:45:56.056Z,13.54
2023-05-13T04:46:56.118Z,13.60
2023-05-13T04:47:58.454Z,13.61
2023-05-13T04:48:56.235Z,13.54
2023-05-13T04:49:56.275Z,13.60
2023-05-13T04:50:56.316Z,13.64
2023-05-13T04:51:56.333Z,13.64
2023-05-13T04:52:56.387Z,13.67
2023-05-13T04:53:56.348Z,13.73
2023-05-13T04:54:56.365Z,13.81
2023-05-13T04:55:56.750Z,13.70
2023-05-13T04:56:56.407Z,13.81
2023-05-13T04:57:56.441Z,13.81
2023-05-13T04:58:56.421Z,13.86
2023-05-13T04:59:56.453Z,13.89
2023-05-13T05:00:56.443Z,13.95
2023-05-13T05:01:56.482Z,13.97
2023-05-13T05:02:56.513Z,14.02
2023-05-13T05:03:56.528Z,13.97
2023-05-13T05:04:56.481Z,14.02
2023-05-13T05:05:56.475Z,14.05
2023-05-13T05:06:56.491Z,14.05
2023-05-13T05:07:56.482Z,14.12
2023-05-13T05:08:56.500Z,14.07
2023-05-13T05:09:56.526Z,14.07
2023-05-13T05:10:56.603Z,14.05
2023-05-13T05:11:56.675Z,13.88
2023-05-13T05:12:56.754Z,13.89
2023-05-13T05:13:56.791Z,13.91
2023-05-13T05:14:56.841Z,13.86
2023-05-13T05:15:56.932Z,13.92
2023-05-13T05:16:57.047Z,13.97
2023-05-13T05:17:57.327Z,13.98
2023-05-13T05:18:57.252Z,13.89
2023-05-13T05:19:57.225Z,13.84
2023-05-13T05:20:57.289Z,13.94
2023-05-13T05:21:57.385Z,13.89
2023-05-13T05:22:57.453Z,13.97
2023-05-13T05:23:57.478Z,13.89
2023-05-13T05:24:57.517Z,13.88
2023-05-13T05:26:04.401Z,13.84
2023-05-13T05:26:57.621Z,13.80
2023-05-13T05:27:57.634Z,13.70
2023-05-13T05:28:57.650Z,13.77
2023-05-13T05:29:57.723Z,13.78
2023-05-13T05:30:57.706Z,13.82
2023-05-13T05:31:57.938Z,13.77
2023-05-13T05:32:57.823Z,13.74
2023-05-13T05:33:57.794Z,13.71
2023-05-13T05:34:58.033Z,13.78
2023-05-13T05:35:57.859Z,13.60
2023-05-13T05:36:57.904Z,13.68
2023-05-13T05:37:57.907Z,13.54
2023-05-13T05:38:57.946Z,13.50
2023-05-13T05:39:57.968Z,13.70
2023-05-13T05:40:58.043Z,13.53
2023-05-13T05:41:58.005Z,13.54
2023-05-13T05:42:58.032Z,13.63
2023-05-13T05:43:58.070Z,13.73
2023-05-13T05:44:58.089Z,13.77
2023-05-13T05:45:58.145Z,13.78
2023-05-13T05:46:58.135Z,13.75
2023-05-13T05:47:58.415Z,13.74
2023-05-13T05:48:58.205Z,13.61
2023-05-13T05:49:58.223Z,13.77
2023-05-13T05:50:58.251Z,13.75
2023-05-13T05:51:58.296Z,13.78
2023-05-13T05:52:58.306Z,13.80
2023-05-13T05:53:58.391Z,13.85
2023-05-13T05:54:58.379Z,13.84
2023-05-13T05:55:58.389Z,13.81
2023-05-13T05:56:58.416Z,13.82
2023-05-13T05:57:58.432Z,13.88
2023-05-13T05:58:58.454Z,13.84
2023-05-13T05:59:58.486Z,13.97
2023-05-13T06:00:58.497Z,13.98
2023-05-13T06:01:58.575Z,13.95
2023-05-13T06:02:58.647Z,13.98
2023-05-13T06:03:58.675Z,13.94
2023-05-13T06:04:58.564Z,13.82
2023-05-13T06:05:58.576Z,13.88
2023-05-13T06:06:58.642Z,13.84
2023-05-13T06:07:58.619Z,13.86
2023-05-13T06:08:58.627Z,13.91
2023-05-13T06:09:58.639Z,13.77
2023-05-13T06:10:58.665Z,13.92
2023-05-13T06:11:58.673Z,13.92
2023-05-13T06:12:58.675Z,14.01
2023-05-13T06:13:58.708Z,14.07
2023-05-13T06:14:58.777Z,14.15
2023-05-13T06:15:58.951Z,14.15
2023-05-13T06:16:58.909Z,14.15
2023-05-13T06:17:59.006Z,14.16
2023-05-13T06:18:59.118Z,14.19
2023-05-13T06:19:59.148Z,14.25
2023-05-13T06:20:59.199Z,14.29
2023-05-13T06:22:00.185Z,14.35
2023-05-13T06:22:59.285Z,14.32
2023-05-13T06:23:59.296Z,14.35
2023-05-13T06:24:59.310Z,14.37
2023-05-13T06:25:59.340Z,14.37
2023-05-13T06:26:59.340Z,14.39
2023-05-13T06:28:01.526Z,14.36
2023-05-13T06:28:59.379Z,14.26
2023-05-13T06:29:59.398Z,14.28
2023-05-13T06:30:59.443Z,14.30
2023-05-13T06:31:59.443Z,14.33
2023-05-13T06:33:02.197Z,14.36
2023-05-13T06:33:59.459Z,14.20
2023-05-13T06:34:59.481Z,14.29
2023-05-13T06:35:59.508Z,14.36
2023-05-13T06:36:59.494Z,14.44
2023-05-13T06:37:59.550Z,14.49
2023-05-13T06:38:59.526Z,14.47
2023-05-13T06:39:59.513Z,14.53
2023-05-13T06:40:59.506Z,14.56
2023-05-13T06:41:59.504Z,14.67
2023-05-13T06:42:59.498Z,14.66
2023-05-13T06:43:59.504Z,14.83
2023-05-13T06:44:59.558Z,14.92
2023-05-13T06:45:59.515Z,14.87
2023-05-13T06:46:59.540Z,14.83
2023-05-13T06:47:59.556Z,14.98
2023-05-13T06:48:59.507Z,14.98
2023-05-13T06:49:59.515Z,15.05
2023-05-13T06:50:59.510Z,15.12
2023-05-13T06:51:59.536Z,15.21
2023-05-13T06:52:59.545Z,15.22
2023-05-13T06:53:59.567Z,15.23
2023-05-13T06:54:59.536Z,15.33
2023-05-13T06:55:59.521Z,15.26
2023-05-13T06:56:59.530Z,15.29
2023-05-13T06:57:59.536Z,15.36
2023-05-13T06:58:59.550Z,15.29
2023-05-13T06:59:59.570Z,15.40
2023-05-13T07:00:59.544Z,15.30
2023-05-13T07:01:59.537Z,15.42
2023-05-13T07:02:59.555Z,15.46
2023-05-13T07:03:59.574Z,15.56
2023-05-13T07:04:59.527Z,15.58
2023-05-13T07:05:59.524Z,15.51
2023-05-13T07:06:59.519Z,15.64
2023-05-13T07:07:59.543Z,15.70
2023-05-13T07:08:59.531Z,15.71
2023-05-13T07:09:59.522Z,15.74
2023-05-13T07:10:59.527Z,15.78
2023-05-13T07:11:59.576Z,15.57
2023-05-13T07:12:59.645Z,15.73
2023-05-13T07:13:59.645Z,15.73
2023-05-13T07:14:59.675Z,15.61
2023-05-13T07:15:59.707Z,15.60
2023-05-13T07:16:59.822Z,15.51
2023-05-13T07:17:59.873Z,15.45
2023-05-13T07:18:59.956Z,15.47
2023-05-13T07:19:59.990Z,15.45
2023-05-13T07:21:00.075Z,15.39
2023-05-13T07:22:00.144Z,15.47
2023-05-13T07:23:00.270Z,15.46
2023-05-13T07:24:00.274Z,15.51
2023-05-13T07:25:00.316Z,15.50
2023-05-13T07:26:00.385Z,15.45
2023-05-13T07:27:00.451Z,15.45
2023-05-13T07:28:00.528Z,15.47
2023-05-13T07:29:00.581Z,15.54
2023-05-13T07:30:00.650Z,15.49
2023-05-13T07:31:00.795Z,15.42
2023-05-13T07:32:00.804Z,15.43
2023-05-13T07:33:00.940Z,15.47
2023-05-13T07:34:00.950Z,15.43
2023-05-13T07:35:01.011Z,15.46
2023-05-13T07:36:01.138Z,15.39
2023-05-13T07:37:01.165Z,15.46
2023-05-13T07:38:01.267Z,15.46
2023-05-13T07:39:02.171Z,15.56
2023-05-13T07:40:01.368Z,15.57
2023-05-13T07:41:01.358Z,15.47
2023-05-13T07:42:01.461Z,15.49
2023-05-13T07:43:01.502Z,15.49
2023-05-13T07:44:01.594Z,15.60
2023-05-13T07:45:01.628Z,15.64
2023-05-13T07:46:01.660Z,15.75
2023-05-13T07:47:01.791Z,15.73
2023-05-13T07:48:01.822Z,15.68
2023-05-13T07:49:01.833Z,15.77
2023-05-13T07:50:01.886Z,15.78
2023-05-13T07:51:01.947Z,15.85
2023-05-13T07:52:01.982Z,15.95
2023-05-13T07:53:02.018Z,15.91
2023-05-13T07:54:02.015Z,16.05
2023-05-13T07:55:02.002Z,16.07
2023-05-13T07:56:02.048Z,16.02
2023-05-13T07:57:02.027Z,16.09
2023-05-13T07:58:02.085Z,16.08
2023-05-13T07:59:02.158Z,15.97
2023-05-13T08:00:02.203Z,15.94
2023-05-13T08:01:02.282Z,15.91
2023-05-13T08:02:02.371Z,15.97
2023-05-13T08:03:02.451Z,16.07
2023-05-13T08:04:02.637Z,16.00
2023-05-13T08:05:02.545Z,16.09
2023-05-13T08:06:02.510Z,16.25
2023-05-13T08:07:02.536Z,16.15
2023-05-13T08:08:03.631Z,16.26
2023-05-13T08:09:02.583Z,16.25
2023-05-13T08:10:02.601Z,16.30
2023-05-13T08:11:02.646Z,16.39
2023-05-13T08:12:02.744Z,16.45
2023-05-13T08:13:02.741Z,16.54
2023-05-13T08:14:02.745Z,16.62
2023-05-13T08:15:02.751Z,16.73
2023-05-13T08:16:02.811Z,16.82
2023-05-13T08:17:02.806Z,16.82
2023-05-13T08:18:02.901Z,16.90
2023-05-13T08:19:02.881Z,16.98
2023-05-13T08:20:03.739Z,17.00
2023-05-13T08:21:02.871Z,17.12
2023-05-13T08:22:02.914Z,17.19
2023-05-13T08:23:02.930Z,17.26
2023-05-13T08:24:02.966Z,17.36
2023-05-13T08:25:03.009Z,17.45
2023-05-13T08:26:03.006Z,17.50
2023-05-13T08:27:03.016Z,17.59
2023-05-13T08:28:03.075Z,17.60
2023-05-13T08:29:03.070Z,17.67
2023-05-13T08:30:03.172Z,17.71
2023-05-13T08:31:03.101Z,17.80
2023-05-13T08:32:03.190Z,17.90
2023-05-13T08:33:03.184Z,17.92
2023-05-13T08:34:03.194Z,17.91
2023-05-13T08:35:03.239Z,17.95
2023-05-13T08:36:03.256Z,17.99
2023-05-13T08:37:03.293Z,17.99
2023-05-13T08:38:03.310Z,18.05
2023-05-13T08:39:03.337Z,18.15
2023-05-13T08:40:03.370Z,18.20
2023-05-13T08:41:03.403Z,18.24
2023-05-13T08:42:03.419Z,18.29
2023-05-13T08:43:03.415Z,18.32
2023-05-13T08:44:03.472Z,18.32
2023-05-13T08:45:03.470Z,18.35
2023-05-13T08:46:03.544Z,18.43
2023-05-13T08:47:03.524Z,18.42
2023-05-13T08:48:03.564Z,18.46
2023-05-13T08:49:03.537Z,18.50
2023-05-13T08:50:03.560Z,18.54
2023-05-13T08:51:03.575Z,18.56
2023-05-13T08:52:03.608Z,18.60
2023-05-13T08:53:03.625Z,18.56
2023-05-13T08:54:03.635Z,18.52
2023-05-13T08:55:03.659Z,18.49
2023-05-13T08:56:03.703Z,18.50
2023-05-13T08:57:03.706Z,18.49
2023-05-13T08:58:03.741Z,18.56
2023-05-13T08:59:03.770Z,18.60
2023-05-13T09:00:03.826Z,18.49
2023-05-13T09:01:03.878Z,18.46
2023-05-13T09:02:03.826Z,18.50
2023-05-13T09:03:03.862Z,18.62
2023-05-13T09:04:03.906Z,18.68
2023-05-13T09:05:03.959Z,18.62
2023-05-13T09:06:03.926Z,18.71
2023-05-13T09:07:03.886Z,18.74
2023-05-13T09:08:04.043Z,18.84
2023-05-13T09:09:03.880Z,18.84
2023-05-13T09:10:03.875Z,18.86
2023-05-13T09:11:03.861Z,18.91
2023-05-13T09:12:03.833Z,18.98
2023-05-13T09:13:03.827Z,18.97
2023-05-13T09:14:03.833Z,19.01
2023-05-13T09:15:03.860Z,18.93
2023-05-13T09:16:03.968Z,18.93
2023-05-13T09:17:03.920Z,18.83
2023-05-13T09:18:04.051Z,18.90
2023-05-13T09:19:04.112Z,18.68
2023-05-13T09:20:04.050Z,18.63
2023-05-13T09:21:03.988Z,18.50
2023-05-13T09:22:04.006Z,18.33
2023-05-13T09:23:04.016Z,18.37
2023-05-13T09:24:03.996Z,18.35
2023-05-13T09:25:04.000Z,18.28
2023-05-13T09:26:03.987Z,18.32
2023-05-13T09:27:04.013Z,18.42
2023-05-13T09:28:04.036Z,18.52
2023-05-13T09:29:04.056Z,18.47
2023-05-13T09:30:04.054Z,18.47
2023-05-13T09:31:04.126Z,18.46
2023-05-13T09:32:04.215Z,18.25
2023-05-13T09:33:04.157Z,18.36
2023-05-13T09:34:04.156Z,18.29
2023-05-13T09:35:04.151Z,18.32
2023-05-13T09:36:04.144Z,18.33
2023-05-13T09:37:04.156Z,18.40
2023-05-13T09:38:04.190Z,18.39
2023-05-13T09:39:04.218Z,18.47
2023-05-13T09:40:04.233Z,18.54
2023-05-13T09:41:04.257Z,18.62
2023-05-13T09:42:05.168Z,18.75
2023-05-13T09:43:04.269Z,18.66
2023-05-13T09:44:04.300Z,18.77
2023-05-13T09:45:04.309Z,18.86
2023-05-13T09:46:04.355Z,18.97
2023-05-13T09:47:04.399Z,19.01
2023-05-13T09:48:04.410Z,18.90
2023-05-13T09:49:04.422Z,19.05
2023-05-13T09:50:04.381Z,19.16
2023-05-13T09:51:04.362Z,19.29
2023-05-13T09:52:04.308Z,19.43
2023-05-13T09:53:04.282Z,19.30
2023-05-13T09:54:04.323Z,19.32
2023-05-13T09:55:04.313Z,19.16
2023-05-13T09:56:04.324Z,19.29
2023-05-13T09:57:04.351Z,18.99
2023-05-13T09:58:04.366Z,18.94
2023-05-13T09:59:04.414Z,18.83
2023-05-13T10:00:04.358Z,18.94
2023-05-13T10:01:04.430Z,18.98
2023-05-13T10:02:04.402Z,18.97
2023-05-13T10:03:04.498Z,19.08
2023-05-13T10:04:04.507Z,19.23
2023-05-13T10:05:04.439Z,19.37
2023-05-13T10:06:04.432Z,19.26
2023-05-13T10:07:04.489Z,19.29
2023-05-13T10:08:04.505Z,19.29
2023-05-13T10:09:04.531Z,19.30
2023-05-13T10:10:04.561Z,19.14
2023-05-13T10:11:04.593Z,19.14
2023-05-13T10:12:04.589Z,19.04
2023-05-13T10:13:04.608Z,18.91
2023-05-13T10:14:04.605Z,19.01
2023-05-13T10:15:04.693Z,18.97
2023-05-13T10:16:04.680Z,18.87
2023-05-13T10:17:04.765Z,18.71
2023-05-13T10:18:07.368Z,18.63
2023-05-13T10:19:04.815Z,18.59
2023-05-13T10:20:04.742Z,18.73
2023-05-13T10:21:04.707Z,18.62
2023-05-13T10:22:04.685Z,18.60
2023-05-13T10:23:04.669Z,18.67
2023-05-13T10:24:04.650Z,18.54
2023-05-13T10:25:04.714Z,18.70
2023-05-13T10:26:04.627Z,18.70
2023-05-13T10:27:04.585Z,18.94
2023-05-13T10:28:04.551Z,19.07
2023-05-13T10:29:04.504Z,19.02
2023-05-13T10:30:04.452Z,19.12
2023-05-13T10:31:04.424Z,19.14
2023-05-13T10:32:04.543Z,19.19
2023-05-13T10:33:04.449Z,19.23
2023-05-13T10:34:04.320Z,19.32
2023-05-13T10:35:04.293Z,19.42
2023-05-13T10:36:04.275Z,19.07
2023-05-13T10:37:04.235Z,18.99
2023-05-13T10:38:04.226Z,18.93
2023-05-13T10:39:04.211Z,18.94
2023-05-13T10:40:04.651Z,18.87
2023-05-13T10:41:04.185Z,18.78
2023-05-13T10:42:04.188Z,18.68
2023-05-13T10:43:04.166Z,18.71
2023-05-13T10:44:04.152Z,18.93
2023-05-13T10:45:04.115Z,18.94
2023-05-13T10:46:04.268Z,19.01
2023-05-13T10:47:04.060Z,18.95
2023-05-13T10:48:04.127Z,19.04
2023-05-13T10:49:03.997Z,18.83
2023-05-13T10:50:03.973Z,18.87
2023-05-13T10:51:03.959Z,18.95
2023-05-13T10:52:04.009Z,18.97
2023-05-13T10:53:03.993Z,18.93
2023-05-13T10:54:04.035Z,18.95
2023-05-13T10:55:04.046Z,18.95
2023-05-13T10:56:04.081Z,19.09
2023-05-13T10:57:04.108Z,19.08
2023-05-13T10:58:04.135Z,19.07
2023-05-13T10:59:04.157Z,19.15
2023-05-13T11:00:04.179Z,19.18
2023-05-13T11:01:04.194Z,19.29
2023-05-13T11:02:04.304Z,19.33
2023-05-13T11:03:04.322Z,19.35
2023-05-13T11:04:04.385Z,19.36
2023-05-13T11:05:04.257Z,19.37
2023-05-13T11:06:04.265Z,19.43
2023-05-13T11:07:04.286Z,19.39
2023-05-13T11:08:04.369Z,19.32
2023-05-13T11:09:04.729Z,19.42
2023-05-13T11:10:04.370Z,19.43
2023-05-13T11:11:04.381Z,19.39
2023-05-13T11:12:04.421Z,19.43
2023-05-13T11:13:04.443Z,19.54
2023-05-13T11:14:04.473Z,19.56
2023-05-13T11:15:04.503Z,19.56
2023-05-13T11:16:04.554Z,19.63
2023-05-13T11:17:04.560Z,19.61
2023-05-13T11:18:04.588Z,19.66
2023-05-13T11:19:04.647Z,19.71
2023-05-13T11:20:04.622Z,19.49
2023-05-13T11:21:05.435Z,19.46
2023-05-13T11:22:04.718Z,19.46
2023-05-13T11:23:04.673Z,19.35
2023-05-13T11:24:04.727Z,19.35
2023-05-13T11:25:04.716Z,19.11
2023-05-13T11:26:04.745Z,19.25
2023-05-13T11:27:04.758Z,19.11
2023-05-13T11:28:04.793Z,19.02
2023-05-13T11:29:04.795Z,19.09
2023-05-13T11:30:04.845Z,19.09
2023-05-13T11:31:04.868Z,18.97
2023-05-13T11:32:04.883Z,19.11
2023-05-13T11:33:04.983Z,19.08
2023-05-13T11:34:04.962Z,18.93
2023-05-13T11:35:05.001Z,19.01
2023-05-13T11:36:05.051Z,19.12
2023-05-13T11:37:05.065Z,19.16
2023-05-13T11:38:05.093Z,19.19
2023-05-13T11:39:05.125Z,18.98
2023-05-13T11:40:05.169Z,19.09
2023-05-13T11:41:05.183Z,19.11
2023-05-13T11:42:05.210Z,19.19
2023-05-13T11:43:05.368Z,19.09
2023-05-13T11:44:05.277Z,19.18
2023-05-13T11:45:05.324Z,19.21
2023-05-13T11:46:05.385Z,19.02
2023-05-13T11:47:05.364Z,18.97
2023-05-13T11:48:05.430Z,18.90
2023-05-13T11:49:07.362Z,19.08
2023-05-13T11:50:05.350Z,19.07
2023-05-13T11:51:05.341Z,19.01
2023-05-13T11:52:05.299Z,19.11
2023-05-13T11:53:05.271Z,19.26
2023-05-13T11:54:05.242Z,19.16
2023-05-13T11:55:07.073Z,19.09
2023-05-13T11:56:05.248Z,19.08
2023-05-13T11:57:05.206Z,19.05
2023-05-13T11:58:05.194Z,19.09
2023-05-13T11:59:05.163Z,19.08
2023-05-13T12:00:06.180Z,19.21
2023-05-13T12:01:05.104Z,19.30
2023-05-13T12:02:05.155Z,19.26
2023-05-13T12:03:05.234Z,19.29
2023-05-13T12:04:05.045Z,19.21
2023-05-13T12:05:05.095Z,19.15
2023-05-13T12:06:05.010Z,19.11
2023-05-13T12:07:04.961Z,19.16
2023-05-13T12:08:04.949Z,19.15
2023-05-13T12:09:05.034Z,19.14
2023-05-13T12:10:05.011Z,19.01
2023-05-13T12:11:04.976Z,19.01
2023-05-13T12:12:05.018Z,18.95
2023-05-13T12:13:04.992Z,18.88
2023-05-13T12:14:05.024Z,18.83
2023-05-13T12:15:05.039Z,18.86
2023-05-13T12:16:05.067Z,18.90
2023-05-13T12:17:05.076Z,18.67
2023-05-13T12:18:05.165Z,18.88
2023-05-13T12:19:05.261Z,18.86
2023-05-13T12:20:05.868Z,18.84
2023-05-13T12:21:05.212Z,18.88
2023-05-13T12:22:05.711Z,18.67
2023-05-13T12:23:05.268Z,18.71
2023-05-13T12:24:05.302Z,18.54
2023-05-13T12:25:05.303Z,18.74
2023-05-13T12:26:05.291Z,18.71
2023-05-13T12:27:05.291Z,18.63
2023-05-13T12:28:05.351Z,18.77
2023-05-13T12:29:05.334Z,18.80
2023-05-13T12:30:05.377Z,18.81
2023-05-13T12:31:05.391Z,18.64
2023-05-13T12:32:05.409Z,18.64
2023-05-13T12:33:05.440Z,18.75
2023-05-13T12:34:05.401Z,18.88
2023-05-13T12:35:05.456Z,18.78
2023-05-13T12:36:05.441Z,18.87
2023-05-13T12:37:05.468Z,18.87
2023-05-13T12:38:05.472Z,18.75
2023-05-13T12:39:05.526Z,18.91
2023-05-13T12:40:05.530Z,18.93
2023-05-13T12:41:05.558Z,18.87
2023-05-13T12:42:05.544Z,18.95
2023-05-13T12:43:05.561Z,18.98
2023-05-13T12:44:05.620Z,19.05
2023-05-13T12:45:05.606Z,19.18
2023-05-13T12:46:05.650Z,19.36
2023-05-13T12:47:05.666Z,19.37
2023-05-13T12:48:05.792Z,19.15
2023-05-13T12:49:05.723Z,19.19
2023-05-13T12:50:05.764Z,19.23
2023-05-13T12:51:05.794Z,19.26
2023-05-13T12:52:05.858Z,19.22
2023-05-13T12:53:05.844Z,19.08